createdAt,value
2019-04-16T00:02:10.483Z,7.90
2019-04-16T00:07:30.741Z,7.67
2019-04-16T00:12:56.764Z,7.60
2019-04-16T00:18:18.518Z,8.60
2019-04-16T00:23:37.300Z,8.48
2019-04-16T00:28:55.855Z,7.57
2019-04-16T00:34:14.596Z,7.43
2019-04-16T00:39:33.098Z,8.07
2019-04-16T00:44:51.567Z,7.60
2019-04-16T00:50:10.294Z,7.63
2019-04-16T00:55:28.915Z,8.57
2019-04-16T01:00:47.457Z,7.83
2019-04-16T01:06:07.943Z,8.40
2019-04-16T01:11:26.420Z,7.73
2019-04-16T01:16:45.040Z,8.47
2019-04-16T01:22:03.662Z,8.67
2019-04-16T01:27:28.578Z,7.77
2019-04-16T01:32:45.784Z,8.40
2019-04-16T01:38:21.308Z,7.63
2019-04-16T01:43:40.281Z,8.63
2019-04-16T01:48:58.756Z,8.43
2019-04-16T01:54:17.295Z,8.47
2019-04-16T01:59:36.460Z,8.10
2019-04-16T02:04:55.021Z,8.87
2019-04-16T02:10:13.801Z,9.13
2019-04-16T02:15:32.539Z,8.47
2019-04-16T02:20:51.069Z,9.17
2019-04-16T02:26:09.609Z,9.47
2019-04-16T02:31:28.158Z,9.73
2019-04-16T02:36:46.716Z,9.87
2019-04-16T02:42:05.271Z,8.70
2019-04-16T02:47:23.865Z,9.53
2019-04-16T02:52:53.112Z,8.47
2019-04-16T02:58:16.026Z,8.43
2019-04-16T03:03:39.280Z,10.17
2019-04-16T03:08:58.018Z,9.70
2019-04-16T03:14:16.587Z,9.63
2019-04-16T03:19:51.001Z,9.47
2019-04-16T03:25:12.637Z,10.33
2019-04-16T03:30:28.222Z,9.83
2019-04-16T03:35:46.860Z,9.90
2019-04-16T03:41:05.505Z,8.90
2019-04-16T03:46:24.044Z,8.83
2019-04-16T03:51:42.594Z,10.23
2019-04-16T03:57:02.256Z,9.90
2019-04-16T04:02:22.932Z,10.13
2019-04-16T04:07:44.201Z,10.70
2019-04-16T04:13:04.774Z,11.10
2019-04-16T04:18:22.174Z,10.13
2019-04-16T04:23:40.639Z,11.13
2019-04-16T04:28:59.116Z,10.67
2019-04-16T04:34:17.849Z,9.60
2019-04-16T04:39:36.661Z,10.07
2019-04-16T04:44:55.286Z,10.17
2019-04-16T04:50:13.896Z,8.83
2019-04-16T04:55:33.056Z,9.10
2019-04-16T05:00:51.700Z,9.45
2019-04-16T05:06:14.671Z,9.33
2019-04-16T05:11:33.287Z,8.57
2019-04-16T05:16:51.836Z,8.03
2019-04-16T05:22:10.310Z,7.87
2019-04-16T05:27:29.494Z,8.37
2019-04-16T05:32:48.291Z,8.17
2019-04-16T05:38:07.729Z,7.90
2019-04-16T05:43:29.982Z,7.80
2019-04-16T05:48:46.878Z,9.10
2019-04-16T05:54:12.397Z,8.00
2019-04-16T05:59:33.580Z,8.87
2019-04-16T06:04:50.429Z,10.43
2019-04-16T06:10:10.271Z,10.27
2019-04-16T06:15:46.731Z,9.40
2019-04-16T06:21:25.819Z,9.00
2019-04-16T06:26:47.407Z,9.57
2019-04-16T06:32:22.167Z,9.30
2019-04-16T06:37:45.603Z,9.53
2019-04-16T06:43:26.481Z,8.80
2019-04-16T06:48:50.724Z,9.30
2019-04-16T06:54:31.726Z,8.93
2019-04-16T06:59:59.473Z,9.43
2019-04-16T07:05:36.018Z,9.98
2019-04-16T07:10:56.138Z,10.20
2019-04-16T07:16:14.683Z,9.13
2019-04-16T07:21:33.305Z,9.80
2019-04-16T07:26:52.229Z,10.17
2019-04-16T07:32:13.872Z,10.63
2019-04-16T07:37:46.489Z,9.97
2019-04-16T07:43:06.692Z,10.70
2019-04-16T07:48:32.971Z,9.60
2019-04-16T07:53:53.232Z,10.30
2019-04-16T07:59:11.788Z,10.20
2019-04-16T08:04:35.310Z,9.73
2019-04-16T08:09:50.756Z,10.03
2019-04-16T08:15:14.265Z,9.70
2019-04-16T08:20:30.107Z,9.30
2019-04-16T08:25:53.293Z,10.13
2019-04-16T08:31:12.650Z,9.90
2019-04-16T08:36:30.988Z,10.30
2019-04-16T08:41:52.366Z,10.23
2019-04-16T08:47:12.122Z,9.13
2019-04-16T08:52:30.784Z,10.53
2019-04-16T08:57:49.461Z,10.53
2019-04-16T09:03:07.969Z,10.40
2019-04-16T09:08:44.698Z,10.50
2019-04-16T09:14:04.667Z,10.37
2019-04-16T09:19:23.973Z,10.07
2019-04-16T09:24:44.173Z,11.03
2019-04-16T09:30:04.655Z,11.03
2019-04-16T09:35:24.775Z,11.00
2019-04-16T09:41:00.231Z,11.00
2019-04-16T09:46:25.028Z,9.93
2019-04-16T09:51:39.714Z,10.63
2019-04-16T09:56:59.741Z,10.20
2019-04-16T10:02:20.628Z,9.47
2019-04-16T10:07:40.282Z,10.33
2019-04-16T10:12:59.770Z,9.70
2019-04-16T10:18:18.348Z,9.80
2019-04-16T10:23:38.613Z,9.93
2019-04-16T10:28:58.908Z,9.83
2019-04-16T10:34:17.635Z,8.97
2019-04-16T10:39:46.819Z,9.17
2019-04-16T10:45:24.432Z,9.37
2019-04-16T10:50:44.636Z,9.83
2019-04-16T10:56:21.260Z,9.80
2019-04-16T11:01:44.652Z,9.53
2019-04-16T11:07:04.921Z,9.80
2019-04-16T11:12:23.582Z,10.10
2019-04-16T11:17:42.308Z,9.80
2019-04-16T11:23:00.919Z,8.97
2019-04-16T11:28:19.559Z,8.80
2019-04-16T11:33:38.364Z,9.73
2019-04-16T11:38:56.880Z,8.97
2019-04-16T11:44:17.009Z,8.27
2019-04-16T11:49:35.813Z,8.97
2019-04-16T11:54:54.473Z,10.33
2019-04-16T12:00:15.257Z,9.47
2019-04-16T12:05:37.915Z,9.03
2019-04-16T12:11:01.117Z,9.33
2019-04-16T12:16:25.462Z,8.17
2019-04-16T12:22:01.070Z,9.07
2019-04-16T12:27:36.673Z,7.83
2019-04-16T12:32:59.791Z,7.87
2019-04-16T12:38:20.052Z,8.17
2019-04-16T12:43:43.126Z,7.77
2019-04-16T12:49:18.287Z,8.73
2019-04-16T12:54:58.343Z,8.23
2019-04-16T13:00:17.069Z,8.30
2019-04-16T13:05:46.443Z,7.83
2019-04-16T13:11:22.628Z,8.27
2019-04-16T13:16:58.871Z,7.83
2019-04-16T13:22:21.729Z,7.03
2019-04-16T13:27:41.665Z,7.47
2019-04-16T13:33:00.148Z,7.17
2019-04-16T13:38:20.364Z,6.83
2019-04-16T13:43:43.245Z,5.97
2019-04-16T13:49:03.497Z,5.40
2019-04-16T13:54:34.111Z,5.63
2019-04-16T13:59:56.767Z,5.30
2019-04-16T14:05:15.625Z,5.72
2019-04-16T14:10:34.435Z,6.03
2019-04-16T14:15:52.924Z,6.77
2019-04-16T14:21:11.461Z,5.80
2019-04-16T14:26:30.080Z,6.40
2019-04-16T14:31:49.104Z,6.30
2019-04-16T14:37:08.147Z,6.30
2019-04-16T14:42:26.788Z,5.62
2019-04-16T14:47:45.402Z,6.50
2019-04-16T14:53:04.043Z,5.50
2019-04-16T14:58:27.213Z,5.83
2019-04-16T15:03:50.330Z,5.50
2019-04-16T15:09:22.612Z,6.17
2019-04-16T15:14:42.860Z,4.83
2019-04-16T15:20:19.021Z,5.40
2019-04-16T15:25:55.999Z,7.10
2019-04-16T15:31:25.470Z,7.60
2019-04-16T15:36:55.003Z,7.00
2019-04-16T15:42:25.373Z,6.87
2019-04-16T15:48:03.711Z,6.37
2019-04-16T15:53:29.692Z,5.90
2019-04-16T15:58:49.807Z,6.77
2019-04-16T16:04:10.044Z,7.47
2019-04-16T16:09:41.097Z,6.83
2019-04-16T16:14:59.381Z,6.60
2019-04-16T16:20:18.188Z,6.10
2019-04-16T16:25:41.118Z,6.60
2019-04-16T16:30:57.668Z,7.23
2019-04-16T16:36:16.208Z,7.90
2019-04-16T16:41:34.765Z,6.43
2019-04-16T16:46:57.417Z,6.77
2019-04-16T16:52:33.202Z,6.93
2019-04-16T16:57:56.193Z,6.60
2019-04-16T17:03:25.178Z,6.43
2019-04-16T17:08:43.730Z,5.47
2019-04-16T17:14:03.146Z,6.53
2019-04-16T17:19:22.139Z,6.27
2019-04-16T17:24:40.767Z,6.03
2019-04-16T17:29:59.320Z,4.90
2019-04-16T17:35:18.027Z,4.83
2019-04-16T17:40:43.968Z,4.73
2019-04-16T17:46:12.934Z,5.20
2019-04-16T17:51:44.815Z,5.23
2019-04-16T17:57:05.200Z,5.53
2019-04-16T18:02:34.372Z,6.00
2019-04-16T18:08:10.695Z,5.50
2019-04-16T18:13:32.176Z,4.03
2019-04-16T18:18:52.805Z,4.20
2019-04-16T18:24:22.017Z,3.40
2019-04-16T18:29:42.196Z,3.10
2019-04-16T18:35:05.262Z,2.67
2019-04-16T18:40:31.474Z,3.70
2019-04-16T18:46:08.475Z,4.27
2019-04-16T18:51:27.122Z,5.23
2019-04-16T18:56:45.732Z,4.90
2019-04-16T19:02:09.799Z,5.00
2019-04-16T19:07:28.432Z,5.50
2019-04-16T19:12:47.087Z,5.83
2019-04-16T19:18:18.537Z,4.60
2019-04-16T19:23:25.915Z,4.93
2019-04-16T19:28:45.659Z,4.00
2019-04-16T19:34:09.299Z,3.50
2019-04-16T19:39:24.633Z,2.97
2019-04-16T19:44:43.245Z,2.20
2019-04-16T19:50:01.800Z,1.90
2019-04-16T19:55:20.502Z,2.10
2019-04-16T20:00:39.283Z,1.73
2019-04-16T20:05:57.909Z,1.97
2019-04-16T20:11:20.403Z,1.87
2019-04-16T20:16:37.024Z,1.50
2019-04-16T20:21:55.569Z,1.82
2019-04-16T20:27:14.118Z,2.20
2019-04-16T20:32:34.384Z,1.90
2019-04-16T20:37:53.982Z,2.23
2019-04-16T20:43:13.276Z,2.30
2019-04-16T20:48:31.745Z,2.20
2019-04-16T20:53:50.300Z,2.40
2019-04-16T20:59:08.865Z,2.30
2019-04-16T21:04:27.522Z,2.70
2019-04-16T21:09:46.069Z,2.40
2019-04-16T21:15:05.782Z,2.77
2019-04-16T21:20:24.395Z,3.03
2019-04-16T21:25:45.901Z,3.10
2019-04-16T21:31:04.949Z,3.10
2019-04-16T21:36:43.558Z,3.00
2019-04-16T21:42:03.299Z,2.70
2019-04-16T21:47:23.595Z,3.20
2019-04-16T21:52:42.483Z,2.87
2019-04-16T21:58:01.098Z,3.10
2019-04-16T22:03:21.403Z,3.13
2019-04-16T22:08:39.942Z,3.00
2019-04-16T22:13:58.413Z,4.00
2019-04-16T22:19:16.957Z,3.30
2019-04-16T22:24:35.566Z,3.17
2019-04-16T22:29:54.185Z,3.07
2019-04-16T22:35:12.792Z,2.83
2019-04-16T22:40:39.101Z,3.33
2019-04-16T22:46:02.432Z,3.37
2019-04-16T22:51:20.901Z,3.57
2019-04-16T22:56:44.278Z,3.50
2019-04-16T23:02:04.804Z,3.73
2019-04-16T23:07:23.370Z,3.60
2019-04-16T23:12:41.927Z,3.13
2019-04-16T23:18:00.460Z,3.40
2019-04-16T23:23:19.361Z,3.07
2019-04-16T23:28:39.769Z,3.30
2019-04-16T23:33:58.211Z,3.30
2019-04-16T23:39:16.825Z,3.87
2019-04-16T23:44:40.186Z,3.43
2019-04-16T23:50:00.316Z,3.23
2019-04-16T23:55:23.260Z,3.62
